KDVN

Davenport Municipal Airport

Davenport, Iowa, USA

KDVN 110852Z AUTO 17005KT 9SM SCT120 M03/M06 A3003 RMK AO2 SLP174 T10281061 58015

Observed Flight Rules
Dec-11 @ 08:52 UTC (23 minutes ago) Visual Flight Rules
Wind Visibility Clouds
170° at 5 knots 9 miles
  • Scattered at 12,000' AGL
Temperatures Readings
Current -3°C / 27°F
Dewpoint -6°C / 21°F
Humidity 80%
Altimeter 30.03" Hg
Pressure 1017.4 hPa
Elevation 230
Observed Flight Rules
Dec-11 @ 08:52 UTC
(23 minutes ago)
VFR
Wind Visibility
170° at 5 knots 9 miles
Clouds
  • Scattered at 12,000' AGL
Temperature Dewpoint
-3°C / 27°F -6°C / 21°F
Humidity Altimeter Pressure
80% 30.03" Hg 1017.4 hPa